Tiempo atmosférico en la estación meteorológica de Miranda De Ebro, Burgos (512 m.)



Fecha
DESCASC
Temp. máxima en grados centígrados (hora)
DESCASC
Temp. mínima en grados centígrados (hora)
DESCASC
Temp. media en grados centígrados
DESCASC
Racha de viento máxima en m/sg (hora)
DESCASC
Velocidad máxima media en intervalos de 10 minutos(hora)
DESCASC
Precipitaciones diarias en mm
DESCASC
Precipitaciones de 00:00 a 06:00 en mm
DESCASC
Precipitaciones de 06:00 a 12:00 en mm
DESCASC
Precipitaciones de 12:00 a 18:00 en mm
DESCASC
Precipitaciones de 18:00 a 24:00 en mm
DESCASC
16-04-2019 22.1 (17:40) 8.2 (07:20) 15.2 6.94 (19:30) 3.89 (20:00) 0.4 0.4 0 0 0
15-04-2019 24.6 (15:00) 7.3 (06:30) 16 13.61 (16:40) 7.22 (16:50) 15 0 0 7.4 7.6
14-04-2019 24.7 (16:40) 6.8 (00:00) 15.8 5.83 (14:10) 3.06 (14:10) 0 0 0 0 0
13-04-2019 24.2 (17:20) -2.8 (-00:0) 10.7 7.78 (18:00) 3.89 (18:00) 0 0 0 0 0
12-04-2019 17.3 (17:30) 2.9 (00:00) 10.1 6.11 (16:10) 3.33 (16:10) 0 0 0 0 0
11-04-2019 13.1 (14:30) 3.5 (00:00) 8.3 8.61 (17:20) 5.28 (17:30) 0.2 0 0 0 0.2
10-04-2019 14.6 (13:00) 2.8 (00:00) 8.7 10.56 (15:30) 5.28 (15:40) 0.6 0.2 0 0.4 0
09-04-2019 14.7 (15:10) 1.9 (00:00) 8.3 9.72 (16:00) 5.83 (15:50) 1 0 0 0 1
08-04-2019 15.7 (15:00) 5.1 (00:00) 10.4 7.22 (16:00) 3.61 (16:10) 14.2 0.4 1.4 12.4 0
07-04-2019 14.4 (16:30) 4.6 (00:00) 9.5 12.5 (21:20) 6.39 (21:20) 0.2 0 0.2 0 0
06-04-2019 11.6 (17:40) 4.8 (00:00) 8.2 13.89 (19:00) 6.67 (16:50) 1.4 0 0 0.6 0.8
05-04-2019 12.6 (15:50) 5.5 (00:00) 9.1 8.33 (15:00) 5 (14:50) 0.2 0 0 0.2 0
04-04-2019 15.2 (17:20) 0.3 (00:00) 7.7 12.22 (15:20) 6.11 (17:50) 0 0 0 0 0
03-04-2019 11.9 (14:10) 2.8 (00:00) 7.3 14.44 (18:10) 7.78 (18:10) 1.6 0.6 1 0 0
02-04-2019 18.9 (14:50) 2.1 (00:00) 10.5 8.61 (17:50) 5 (18:10) 0 0 0 0 0
01-04-2019 16.9 (19:20) 7.2 (00:00) 12 9.72 (01:30) 5 (01:50) 0.4 0.4 0 0 0
31-03-2019 21.8 (17:10) 0 (00:00) 10.9 8.61 (23:10) 4.72 (23:00) 0 0 0 0 0
30-03-2019 22.3 (16:40) 1.8 (00:00) 12 6.67 (11:40) 3.61 (11:50) 0 0 0 0 0
29-03-2019 22.2 (16:50) -1.8 (-00:0) 10.2 8.33 (13:40) 4.44 (13:40) 0 0 0 0 0
28-03-2019 18.4 (16:20) 0.8 (00:00) 9.6 6.67 (14:10) 3.33 (15:50) 0 0 0 0 0
27-03-2019 17.7 (15:40) -1.8 (-00:0) 8 8.61 (17:20) 4.44 (17:10) 0 0 0 0 0
26-03-2019 17 (15:00) 1.7 (00:00) 9.4 10.56 (15:40) 5.83 (17:10) 0 0 0 0 0
25-03-2019 14.7 (15:10) 2.8 (00:00) 8.7 9.17 (17:20) 4.72 (16:10) 0 0 0 0 0
24-03-2019 22.8 (14:00) 0.1 (00:00) 11.4 8.33 (17:40) 4.17 (16:40) 0 0 0 0 0
23-03-2019 24.9 (16:20) -1.3 (-00:0) 11.8 7.5 (18:30) 3.89 (18:40) 0 0 0 0 0
22-03-2019 22.1 (18:00) -2.6 (-00:0) 9.8 4.72 (21:00) 2.22 (17:00) 0 0 0 0 0
21-03-2019 16.2 (17:10) -2.2 (-00:0) 7 6.67 (11:30) 3.61 (12:20) 0 0 0 0 0
20-03-2019 13.5 (16:30) 1.9 (00:00) 7.7 9.72 (13:40) 5.28 (13:40) 0 0 0 0 0
19-03-2019 11.2 (17:20) 3.5 (00:00) 7.3 8.61 (14:50) 5 (16:50) 3.8 0 3.2 0.6 0

Gráficas

Temp. máximas Temp. mínimas Temp. medias Precipitaciones Rachas de viento máximas Velocidades máximas media en intervalos de 10 minutos

Datos horarios

Fecha y hora oficial Temperatura (ºC) Velocidad del viento (km/h) Dirección del viento Racha (km/h) Dirección de racha Precipitación (mm) Presión (hPa) Tendencia (hPa) Humedad (%)
2019-04-17 23:00:00 15.4 7 Sur 42 Sudeste 0.2 -- -- 69
2019-04-17 22:00:00 17.5 21 Sudeste 43 Este 0 -- -- 58
2019-04-17 21:00:00 17.6 9 Este 27 Este 0 -- -- 58
2019-04-17 20:00:00 18.4 8 Este 34 Sudeste 0 -- -- 56
2019-04-17 19:00:00 20 15 Sudeste 30 Sudeste 0 -- -- 52
2019-04-17 18:00:00 22.2 4 Norte 17 Sudeste 0 -- -- 51
2019-04-17 17:00:00 21.2 10 Sur 22 Sur 0 -- -- 52
2019-04-17 16:00:00 19.2 15 Sudeste 31 Sur 0 -- -- 55
2019-04-17 15:00:00 20.3 6 Este 11 Noroeste 0 -- -- 51
2019-04-17 14:00:00 17.9 5 Norte 17 Norte 0 -- -- 60
2019-04-17 13:00:00 15.1 10 Noroeste 17 Norte 0 -- -- 71
2019-04-17 12:00:00 13.6 10 Norte 19 Noroeste 0 -- -- 74
2019-04-17 11:00:00 12.4 8 Norte 15 Norte 0 -- -- 76
2019-04-17 10:00:00 11.5 5 Nordeste 27 Sudeste 0 -- -- 77
2019-04-17 09:00:00 11.2 5 Noroeste 15 Norte 0 -- -- 76
2019-04-17 08:00:00 11 4 Este 17 Noroeste 0 -- -- 76
2019-04-17 07:00:00 11.3 4 Nordeste 14 Sur 0 -- -- 72
2019-04-17 06:00:00 12.3 5 Sur 24 Sudeste 0 -- -- 67
2019-04-17 05:00:00 13.6 7 Este 30 Sudeste 0 -- -- 65
2019-04-17 04:00:00 14.1 15 Sudeste 35 Sudeste 0 -- -- 63
2019-04-17 03:00:00 14.9 16 Sudeste 30 Sudeste 0 -- -- 59
2019-04-17 02:00:00 15.2 13 Sudeste 31 Sudeste 0 -- -- 55
2019-04-17 01:00:00 14.5 14 Sudeste 38 Sudeste 0 -- -- 60
2019-04-17 00:00:00 11.7 3 Noroeste 10 Sudoeste 0 -- -- 80
2019-04-16 23:00:00 12.9 6 Oeste 9 Oeste 0 -- -- 77
2019-04-16 22:00:00 13.1 4 Norte 14 Sudeste 0 -- -- 76
2019-04-16 21:00:00 15.9 9 Sudeste 23 Sudeste 0 -- -- 61
2019-04-16 20:00:00 18.5 14 Sudeste 25 Sudeste 0 -- -- 53
2019-04-16 19:00:00 21.1 5 Sudeste 14 Sudeste 0 -- -- 49
2019-04-16 18:00:00 21.6 8 Este 20 Sudeste 0 -- -- 45
2019-04-16 17:00:00 21.4 5 Sur 16 Sur 0 -- -- 46
2019-04-16 16:00:00 20.7 4 Sur 12 Sudoeste 0 -- -- 49
2019-04-16 15:00:00 19.5 4 Este 16 Sudeste 0 -- -- 50
2019-04-16 14:00:00 17.8 6 Nordeste 13 Este 0 -- -- 57
2019-04-16 13:00:00 17.2 5 Este 13 Este 0 -- -- 57
2019-04-16 12:00:00 16.6 4 Este 9 Sudeste 0 -- -- 59
2019-04-16 11:00:00 14.8 3 Este 8 Noroeste 0 -- -- 64
2019-04-16 10:00:00 11.7 0 Calma 4 Norte 0 -- -- 78
2019-04-16 09:00:00 10.8 3 Este 5 Este 0 -- -- 82
2019-04-16 08:00:00 8.7 0 Calma 5 Este 0 -- -- 93
2019-04-16 07:00:00 8.6 3 Este 7 Nordeste 0 -- -- 93
2019-04-16 06:00:00 9.1 3 Sudeste 8 Este 0 -- -- 92
2019-04-16 05:00:00 9 3 Este 6 Nordeste 0 -- -- 92
2019-04-16 04:00:00 9.3 5 Este 12 Este 0 -- -- 93
2019-04-16 03:00:00 9.6 4 Este 12 Nordeste 0 -- -- 91
2019-04-16 02:00:00 10.1 5 Nordeste 12 Nordeste 0.2 -- -- 91
2019-04-16 01:00:00 10.4 6 Nordeste 14 Este 0.2 -- -- 92
2019-04-16 00:00:00 10.5 6 Este 10 Este 0 -- -- 95
2019-04-15 23:00:00 10.5 4 Nordeste 15 Este 2.2 -- -- 95
2019-04-15 22:00:00 10.9 4 Sudoeste 15 Este 1.8 -- -- 93
2019-04-15 21:00:00 11 9 Nordeste 18 Este 0.8 -- -- 91
2019-04-15 20:00:00 12 8 Nordeste 28 Nordeste 2.8 -- -- 92
2019-04-15 19:00:00 15.1 15 Nordeste 28 Nordeste 0 -- -- 82
2019-04-15 18:00:00 15.5 6 Norte 11 Norte 1.6 -- -- 88
2019-04-15 17:00:00 14.3 11 Sudoeste 49 Oeste 5.8 -- -- 87
2019-04-15 16:00:00 21.7 12 Sudeste 32 Sudeste 0 -- -- 54
2019-04-15 15:00:00 24.6 15 Sudeste 30 Sudeste 0 -- -- 50
2019-04-15 14:00:00 22 14 Sur 27 Sur 0 -- -- 54
2019-04-15 13:00:00 19.9 17 Sur 36 Sudeste 0 -- -- 58
2019-04-15 12:00:00 18.7 5 Norte 14 Norte 0 -- -- 65
2019-04-15 11:00:00 17.4 4 Norte 9 Nordeste 0 -- -- 67
2019-04-15 10:00:00 13.6 2 Norte 4 Norte 0 -- -- 81
2019-04-15 09:00:00 9.3 2 Norte 4 Oeste 0 -- -- 93
2019-04-15 08:00:00 8 3 Noroeste 5 Oeste 0 -- -- 95
2019-04-15 07:00:00 7.4 0 Calma 6 Noroeste 0 -- -- 95
2019-04-15 06:00:00 8 0 Calma 6 Oeste 0 -- -- 94
2019-04-15 05:00:00 7.5 0 Calma 3 Este 0 -- -- 94
2019-04-15 04:00:00 7.8 0 Calma 8 Oeste 0 -- -- 93
2019-04-15 03:00:00 9.3 5 Oeste 10 Sudoeste 0 -- -- 91
2019-04-15 02:00:00 9 0 Calma 6 Oeste 0 -- -- 90
2019-04-15 01:00:00 10.5 2 Sudoeste 5 Sudoeste 0 -- -- 89
2019-04-15 00:00:00 11.9 0 Calma 8 Noroeste 0 -- -- 84
2019-04-14 23:00:00 13.6 2 Sudeste 5 Sudeste 0 -- -- 79
2019-04-14 22:00:00 15.8 4 Nordeste 13 Este 0 -- -- 70
2019-04-14 21:00:00 17.6 6 Nordeste 20 Este 0 -- -- 64
2019-04-14 20:00:00 19.4 8 Nordeste 21 Este 0 -- -- 58
2019-04-14 19:00:00 21.7 11 Nordeste 19 Nordeste 0 -- -- 50
2019-04-14 18:00:00 23 4 Este 14 Nordeste 0 -- -- 48
2019-04-14 17:00:00 22.4 10 Norte 21 Noroeste 0 -- -- 48
2019-04-14 16:00:00 23.4 7 Oeste 14 Noroeste 0 -- -- 45
2019-04-14 15:00:00 23.3 9 Norte 21 Noroeste 0 -- -- 44
2019-04-14 14:00:00 23 5 Norte 16 Sudoeste 0 -- -- 44
2019-04-14 13:00:00 21.7 3 Noroeste 9 Noroeste 0 -- -- 44
2019-04-14 12:00:00 20.6 3 Noroeste 6 Sudoeste 0 -- -- 47
2019-04-14 11:00:00 16.3 3 Sudeste 5 Nordeste 0 -- -- 52
2019-04-14 10:00:00 13.1 3 Norte 6 Este 0 -- -- 62
2019-04-14 09:00:00 9.6 2 Sur 5 Sur 0 -- -- 78
2019-04-14 08:00:00 7.8 0 Calma 5 Sudeste 0 -- -- 87
2019-04-14 07:00:00 7.9 0 Calma 4 Oeste 0 -- -- 84
2019-04-14 06:00:00 7.1 2 Noroeste 4 Noroeste 0 -- -- 89
2019-04-14 05:00:00 7.5 0 Calma 4 Sudoeste 0 -- -- 84
2019-04-14 04:00:00 8.5 2 Noroeste 3 Noroeste 0 -- -- 83
2019-04-14 03:00:00 8.5 0 Calma 6 Sudoeste 0 -- -- 81
2019-04-14 02:00:00 9.1 4 Oeste 6 Oeste 0 -- -- 75
2019-04-14 01:00:00 10.5 2 Noroeste 4 Oeste 0 -- -- 75
2019-04-14 00:00:00 10.6 0 Calma 8 Noroeste 0 -- -- 72
2019-04-13 23:00:00 10.2 3 Oeste 5 Noroeste 0 -- -- 69
2019-04-13 22:00:00 13 2 Sur 10 Sudoeste 0 -- -- 56
2019-04-13 21:00:00 15.4 3 Noroeste 17 Noroeste 0 -- -- 49
2019-04-13 20:00:00 20.9 9 Oeste 20 Oeste 0 -- -- 32
2019-04-13 19:00:00 22.5 10 Oeste 27 Sudoeste 0 -- -- 28
2019-04-13 18:00:00 23 14 Oeste 28 Oeste 0 -- -- 23
2019-04-13 17:00:00 23.2 6 Norte 14 Norte 0 -- -- 26
2019-04-13 16:00:00 22.4 5 Nordeste 13 Nordeste 0 -- -- 25
2019-04-13 15:00:00 21.4 4 Nordeste 9 Nordeste 0 -- -- 24
2019-04-13 14:00:00 19.6 3 Este 8 Este 0 -- -- 34
2019-04-13 13:00:00 15.6 4 Sudeste 9 Sudeste 0 -- -- 43
2019-04-13 12:00:00 11.4 3 Este 6 Noroeste 0 -- -- 53
2019-04-13 11:00:00 8.6 3 Oeste 6 Sudoeste 0 -- -- 63
2019-04-13 10:00:00 5 3 Noroeste 6 Oeste 0 -- -- 68
2019-04-13 09:00:00 2.4 2 Norte -- -- 0 -- -- 82
2019-04-13 08:00:00 -2.6 0 Calma 4 Oeste 0 -- -- 93
2019-04-13 07:00:00 -2.7 0 Calma 5 Oeste 0 -- -- 92
2019-04-13 06:00:00 -1.3 4 Oeste 6 Oeste 0 -- -- 92
2019-04-13 05:00:00 -1.7 2 Oeste 6 Oeste 0 -- -- 92
2019-04-13 04:00:00 -1 3 Oeste 6 Noroeste 0 -- -- 91
2019-04-13 03:00:00 1 4 Oeste 8 Sudoeste 0 -- -- 88
2019-04-13 02:00:00 1.7 4 Oeste 8 Oeste 0 -- -- 90
2019-04-13 01:00:00 3.1 4 Oeste 6 Sudoeste 0 -- -- 87
2019-04-13 00:00:00 3.7 2 Oeste 11 Este 0 -- -- 86
2019-04-12 23:00:00 7.8 6 Este 14 Este 0 -- -- 75
2019-04-12 22:00:00 8.3 3 Nordeste 10 Este 0 -- -- 72
2019-04-12 21:00:00 11 8 Nordeste 17 Nordeste 0 -- -- 60
2019-04-12 20:00:00 14.8 9 Nordeste 18 Nordeste 0 -- -- 46
2019-04-12 19:00:00 16.2 9 Nordeste 21 Este 0 -- -- 44
2019-04-12 18:00:00 16.8 9 Nordeste 20 Nordeste 0 -- -- 45
2019-04-12 17:00:00 16.6 11 Nordeste 22 Nordeste 0 -- -- 44
2019-04-12 16:00:00 16.2 9 Norte 20 Nordeste 0 -- -- 48
2019-04-12 15:00:00 15.4 9 Norte 21 Norte 0 -- -- 47
2019-04-12 14:00:00 15.7 8 Nordeste 21 Este 0 -- -- 52
2019-04-12 13:00:00 12.5 8 Nordeste 16 Nordeste 0 -- -- 56
2019-04-12 12:00:00 10.8 3 Nordeste 9 Nordeste 0 -- -- 64
2019-04-12 11:00:00 12.1 4 Oeste 9 Noroeste 0 -- -- 63
2019-04-12 10:00:00 10.6 3 Oeste 4 Oeste 0 -- -- 67
2019-04-12 09:00:00 6.5 2 Este 10 Sudoeste 0 -- -- 85
2019-04-12 08:00:00 3.6 6 Sudoeste 10 Sudoeste 0 -- -- 93
2019-04-12 07:00:00 3.4 2 Noroeste 9 Oeste 0 -- -- 92
2019-04-12 06:00:00 3.4 4 Oeste 8 Oeste 0 -- -- 93
2019-04-12 05:00:00 3.4 4 Noroeste 8 Oeste 0 -- -- 90
2019-04-12 04:00:00 5.4 3 Norte 9 Nordeste 0 -- -- 87
2019-04-12 03:00:00 6.1 4 Norte 9 Noroeste 0 -- -- 86
2019-04-12 02:00:00 6.9 3 Sudeste 11 Noroeste 0 -- -- 86
2019-04-12 01:00:00 7.7 4 Norte 9 Norte 0 -- -- 84
2019-04-12 00:00:00 7.8 5 Norte 7 Norte 0 -- -- 82
2019-04-11 23:00:00 8.2 3 Nordeste 8 Oeste 0 -- -- 84
2019-04-11 22:00:00 8.4 3 Oeste 9 Norte 0 -- -- 85
2019-04-11 21:00:00 8.6 5 Noroeste 10 Noroeste 0 -- -- 83
2019-04-11 20:00:00 8.6 6 Norte 20 Noroeste 0.2 -- -- 86
2019-04-11 19:00:00 9.6 11 Norte 22 Norte 0 -- -- 77
2019-04-11 18:00:00 11 14 Norte 31 Noroeste 0 -- -- 69
2019-04-11 17:00:00 12.2 18 Noroeste 28 Noroeste 0 -- -- 67
2019-04-11 16:00:00 11.2 14 Norte 27 Norte 0 -- -- 69
2019-04-11 15:00:00 11.3 12 Norte 23 Norte 0 -- -- 69
2019-04-11 14:00:00 11.7 9 Noroeste 15 Noroeste 0 -- -- 66
2019-04-11 13:00:00 10 5 Noroeste 12 Oeste 0 -- -- 74
2019-04-11 12:00:00 9.8 5 Noroeste 10 Noroeste 0 -- -- 75
2019-04-11 11:00:00 8.4 3 Norte 5 Norte 0 -- -- 80
2019-04-11 10:00:00 8 2 Noroeste 5 Oeste 0 -- -- 79
2019-04-11 09:00:00 6.1 3 Sur 5 Sur 0 -- -- 92
2019-04-11 08:00:00 4 0 Calma 4 Sudeste 0 -- -- 95
2019-04-11 07:00:00 4.1 0 Calma 9 Sudoeste 0 -- -- 92
2019-04-11 06:00:00 4.7 3 Oeste 5 Oeste 0 -- -- 94
2019-04-11 05:00:00 4.3 0 Calma 7 Noroeste 0 -- -- 93
2019-04-11 04:00:00 4.7 5 Oeste 9 Oeste 0 -- -- 93
2019-04-11 03:00:00 4.3 0 Calma 7 Sudoeste 0 -- -- 92
2019-04-11 02:00:00 6.6 3 Sudoeste 7 Sudoeste 0 -- -- 88
2019-04-11 01:00:00 6.4 3 Este 6 Sudoeste 0 -- -- 90
2019-04-11 00:00:00 6.5 3 Oeste 8 Sudoeste 0 -- -- 86
2019-04-10 23:00:00 7.3 3 Noroeste 9 Noroeste 0 -- -- 84
2019-04-10 22:00:00 7.3 4 Noroeste 14 Noroeste 0 -- -- 82
2019-04-10 21:00:00 8.5 7 Noroeste 12 Noroeste 0 -- -- 80
2019-04-10 20:00:00 9.5 3 Noroeste 9 Norte 0 -- -- 78
2019-04-10 19:00:00 9.5 6 Oeste 17 Oeste 0 -- -- 81
2019-04-10 18:00:00 10 11 Oeste 17 Oeste 0 -- -- 81
2019-04-10 17:00:00 10.8 11 Este 23 Norte 0 -- -- 67
2019-04-10 16:00:00 9.6 13 Nordeste 38 Nordeste 0 -- -- 76
2019-04-10 15:00:00 10.1 10 Este 24 Este 0.4 -- -- 74
2019-04-10 14:00:00 13.7 3 Sudoeste 12 Oeste 0 -- -- 57
2019-04-10 13:00:00 14.6 4 Norte 13 Norte 0 -- -- 57
2019-04-10 12:00:00 12.4 5 Oeste 9 Noroeste 0 -- -- 65
2019-04-10 11:00:00 7.1 5 Oeste 8 Oeste 0 -- -- 92
2019-04-10 10:00:00 5.8 0 Calma 5 Sudeste 0 -- -- 95
2019-04-10 09:00:00 4.4 4 Sudeste 7 Sudeste 0 -- -- 97
2019-04-10 08:00:00 3.9 2 Sudeste 4 Sudeste 0 -- -- 97
2019-04-10 07:00:00 3.5 3 Sudeste 8 Sudeste 0 -- -- 97
2019-04-10 06:00:00 3.1 0 Calma 7 Oeste 0 -- -- 96
2019-04-10 05:00:00 3 3 Noroeste 7 Este 0 -- -- 95
2019-04-10 04:00:00 4.3 0 Calma 4 Noroeste 0 -- -- 95
2019-04-10 03:00:00 5.2 2 Norte 3 Norte 0.2 -- -- 94
2019-04-10 02:00:00 5.3 0 Calma 5 Noroeste 0 -- -- 94
2019-04-10 01:00:00 5.4 3 Norte 18 Sudeste 0 -- -- 93
2019-04-10 00:00:00 5.9 0 Calma 9 Sur 0 -- -- 92
2019-04-09 23:00:00 5.2 0 Calma 5 Sudoeste 0 -- -- 92
2019-04-09 22:00:00 6.4 4 Oeste 22 Sudeste 0 -- -- 90
2019-04-09 21:00:00 6.5 6 Sudeste 20 Noroeste 1 -- -- 88
2019-04-09 20:00:00 7.7 10 Noroeste 28 Noroeste 0 -- -- 80
2019-04-09 19:00:00 9.1 15 Norte 30 Norte 0 -- -- 79
2019-04-09 18:00:00 12.7 16 Noroeste 27 Oeste 0 -- -- 66
2019-04-09 17:00:00 13.6 12 Noroeste 28 Oeste 0 -- -- 59
2019-04-09 16:00:00 12 18 Oeste 35 Oeste 0 -- -- 62
2019-04-09 15:00:00 14 9 Oeste 24 Oeste 0 -- -- 58
2019-04-09 14:00:00 12.6 10 Oeste 33 Noroeste 0 -- -- 61
2019-04-09 13:00:00 11.8 12 Oeste 33 Oeste 0 -- -- 66
2019-04-09 12:00:00 12 17 Oeste 34 Sudoeste 0 -- -- 60
2019-04-09 11:00:00 10.9 13 Oeste 29 Sudoeste 0 -- -- 65
2019-04-09 10:00:00 9.8 12 Oeste 27 Sudoeste 0 -- -- 71
2019-04-09 09:00:00 8.2 14 Oeste 24 Oeste 0 -- -- 75
2019-04-09 08:00:00 7.7 4 Oeste 27 Oeste 0 -- -- 77
2019-04-09 07:00:00 7.1 11 Oeste 27 Oeste 0 -- -- 78
2019-04-09 06:00:00 4.5 2 Sudeste 15 Oeste 0 -- -- 89
2019-04-09 05:00:00 5.5 5 Sudoeste 19 Sudoeste 0 -- -- 96
2019-04-09 04:00:00 2.1 4 Oeste 9 Sudoeste 0 -- -- 96
2019-04-09 03:00:00 2.2 5 Norte 8 Norte 0 -- -- 96
2019-04-09 02:00:00 3.3 4 Noroeste 8 Norte 0 -- -- 97
2019-04-09 01:00:00 4.1 3 Norte 6 Norte 0 -- -- 96
2019-04-09 00:00:00 5.1 0 Calma 5 Oeste 0 -- -- 94
2019-04-08 23:00:00 6.4 0 Calma 6 Oeste 0 -- -- 92
2019-04-08 22:00:00 7.1 0 Calma 8 Nordeste 0 -- -- 90
2019-04-08 21:00:00 8.9 2 Norte 13 Nordeste 0 -- -- 84
2019-04-08 20:00:00 11.5 8 Nordeste 20 Nordeste 0 -- -- 75
2019-04-08 19:00:00 13.6 8 Nordeste 19 Nordeste 0 -- -- 67
2019-04-08 18:00:00 14.3 6 Nordeste 15 Este 0 -- -- 72
2019-04-08 17:00:00 12 8 Este 23 Este 0.2 -- -- 83
2019-04-08 16:00:00 9.7 12 Nordeste 26 Nordeste 10.2 -- -- 92
2019-04-08 15:00:00 15.7 9 Este 21 Este 0 -- -- 65
2019-04-08 14:00:00 14.5 8 Sudeste 17 Sudeste 0.2 -- -- 78
2019-04-08 13:00:00 9.8 4 Sudeste 9 Nordeste 1.8 -- -- 91
2019-04-08 12:00:00 9.8 3 Norte 10 Noroeste 1.2 -- -- 90
2019-04-08 11:00:00 11.2 3 Norte 13 Sudeste 0 -- -- 80
2019-04-08 10:00:00 9.4 4 Sudeste 7 Sudeste 0 -- -- 86
2019-04-08 09:00:00 8.5 3 Sudeste 17 Sudoeste 0 -- -- 90
2019-04-08 08:00:00 8.5 4 Sur 16 Sudoeste 0 -- -- 87
2019-04-08 07:00:00 7.8 4 Sur 12 Sudoeste 0.2 -- -- 92
2019-04-08 06:00:00 7.9 7 Sudeste 13 Sudeste 0.2 -- -- 90
2019-04-08 05:00:00 7.7 3 Sudeste 12 Sudeste 0 -- -- 89
2019-04-08 04:00:00 7.6 7 Sudeste 11 Este 0.2 -- -- 85
2019-04-08 03:00:00 8 4 Sudeste 10 Sudeste 0 -- -- 79
2019-04-08 02:00:00 8.1 4 Sudeste 9 Este 0 -- -- 77
2019-04-08 01:00:00 8.2 5 Nordeste 14 Oeste 0 -- -- 76
2019-04-08 00:00:00 8.2 6 Noroeste 28 Oeste 0 -- -- 77
2019-04-07 23:00:00 9.4 15 Oeste 32 Sudoeste 0 -- -- 69
2019-04-07 22:00:00 10.2 14 Oeste 45 Sudoeste 0 -- -- 64
2019-04-07 21:00:00 12.7 10 Sudoeste 20 Sudoeste 0 -- -- 41
2019-04-07 20:00:00 13.2 8 Sudoeste 26 Sudoeste 0 -- -- 40
2019-04-07 19:00:00 13.9 15 Sudoeste 30 Sudoeste 0 -- -- 41
2019-04-07 18:00:00 14.1 11 Oeste 29 Oeste 0 -- -- 43
2019-04-07 17:00:00 13.8 13 Oeste 26 Oeste 0 -- -- 42
2019-04-07 16:00:00 14.3 13 Oeste 28 Oeste 0 -- -- 42
2019-04-07 15:00:00 13.4 7 Sudoeste 29 Oeste 0 -- -- 46
2019-04-07 14:00:00 12.9 11 Oeste 28 Oeste 0 -- -- 51
2019-04-07 13:00:00 11.8 9 Sudoeste 27 Sudoeste 0 -- -- 56
2019-04-07 12:00:00 9.6 16 Oeste 28 Sudoeste 0 -- -- 62
2019-04-07 11:00:00 7.5 12 Oeste 26 Oeste 0 -- -- 70
2019-04-07 10:00:00 6.1 11 Oeste 25 Oeste 0 -- -- 74
2019-04-07 09:00:00 5.5 13 Oeste 26 Oeste 0 -- -- 76
2019-04-07 08:00:00 5 5 Sudoeste 15 Oeste 0 -- -- 80
2019-04-07 07:00:00 4.6 10 Sudoeste 22 Oeste 0.2 -- -- 84
2019-04-07 06:00:00 5.4 15 Oeste 25 Oeste 0 -- -- 77
2019-04-07 05:00:00 5.6 6 Oeste 17 Sudoeste 0 -- -- 77
2019-04-07 04:00:00 5.8 5 Sudoeste 13 Oeste 0 -- -- 81
2019-04-07 03:00:00 5.8 4 Sudoeste 16 Oeste 0 -- -- 82
2019-04-07 02:00:00 5.6 2 Sudoeste 8 Oeste 0 -- -- 85
2019-04-07 01:00:00 5.5 5 Oeste 17 Noroeste 0 -- -- 85
2019-04-07 00:00:00 5.7 8 Oeste 15 Noroeste 0 -- -- 84
2019-04-06 23:00:00 6.4 7 Oeste 18 Sudoeste 0.2 -- -- 81
2019-04-06 22:00:00 7.5 10 Oeste 18 Oeste 0 -- -- 74
2019-04-06 21:00:00 7.2 3 Sudoeste 17 Oeste 0 -- -- 81
2019-04-06 20:00:00 8.4 11 Oeste 39 Oeste 0.6 -- -- 74
2019-04-06 19:00:00 9.1 18 Oeste 50 Sudoeste 0 -- -- 65
2019-04-06 18:00:00 10.6 15 Oeste 40 Oeste 0 -- -- 59
2019-04-06 17:00:00 10.7 19 Oeste 41 Oeste 0.6 -- -- 59
2019-04-06 16:00:00 11.1 17 Oeste 35 Sudoeste 0 -- -- 53
2019-04-06 15:00:00 11.3 14 Sudoeste 36 Sudoeste 0 -- -- 54
2019-04-06 14:00:00 10.5 19 Oeste 46 Oeste 0 -- -- 56
2019-04-06 13:00:00 8.1 17 Oeste 48 Oeste 0 -- -- 71
2019-04-06 12:00:00 10 16 Oeste 43 Oeste 0 -- -- 58
2019-04-06 11:00:00 8.5 19 Sudoeste 33 Oeste 0 -- -- 62
2019-04-06 10:00:00 8.2 13 Sudoeste 36 Sudoeste 0 -- -- 63
2019-04-06 09:00:00 6.4 8 Oeste 28 Sudoeste 0 -- -- 69
2019-04-06 08:00:00 6.1 9 Oeste 24 Oeste 0 -- -- 71
2019-04-06 07:00:00 6.3 8 Oeste 27 Sudoeste 0 -- -- 73
2019-04-06 06:00:00 5.9 7 Oeste 22 Oeste 0 -- -- 74
2019-04-06 05:00:00 5.9 12 Oeste 23 Oeste 0 -- -- 73
2019-04-06 04:00:00 4.8 3 Oeste 14 Oeste 0 -- -- 78
2019-04-06 03:00:00 5.8 8 Oeste 26 Oeste 0 -- -- 72
2019-04-06 02:00:00 5.9 9 Oeste 21 Oeste 0 -- -- 72
2019-04-06 01:00:00 5.8 9 Oeste 17 Oeste 0 -- -- 72
2019-04-06 00:00:00 5.9 7 Oeste 14 Oeste 0 -- -- 70
2019-04-05 23:00:00 6.6 14 Sudoeste 21 Oeste 0 -- -- 68
2019-04-05 22:00:00 5.5 3 Sudoeste 13 Sudoeste 0 -- -- 73
2019-04-05 21:00:00 7.3 5 Sudoeste 17 Sudeste 0 -- -- 71
2019-04-05 20:00:00 8.7 10 Sudeste 18 Sudeste 0 -- -- 71
2019-04-05 19:00:00 9 7 Sur 17 Sudoeste 0 -- -- 63
2019-04-05 18:00:00 9.3 10 Sudoeste 23 Sudoeste 0 -- -- 59
2019-04-05 17:00:00 10.4 8 Sudoeste 20 Sur 0 -- -- 54
2019-04-05 16:00:00 12.5 8 Sudoeste 23 Sudoeste 0 -- -- 51
2019-04-05 15:00:00 9.7 17 Sudoeste 30 Sudoeste 0 -- -- 59
2019-04-05 14:00:00 9.7 11 Sudoeste 23 Sur 0 -- -- 70
2019-04-05 13:00:00 10.1 3 Sudoeste 18 Sur 0.2 -- -- 69
2019-04-05 12:00:00 10.1 9 Sudeste 18 Sudeste 0 -- -- 59
2019-04-05 11:00:00 9.3 8 Sudeste 13 Sudeste 0 -- -- 61
2019-04-05 10:00:00 8.4 6 Sudeste 12 Este 0 -- -- 63
2019-04-05 09:00:00 8 0 Calma 13 Sur 0 -- -- 62
2019-04-05 08:00:00 7.3 4 Sur 11 Este 0 -- -- 61
2019-04-05 07:00:00 7.1 4 Sudoeste 8 Oeste 0 -- -- 69
2019-04-05 06:00:00 6.7 2 Sudoeste 10 Sudoeste 0 -- -- 72
2019-04-05 05:00:00 7 3 Noroeste 9 Oeste 0 -- -- 69
2019-04-05 04:00:00 6.8 4 Sudeste 13 Sudoeste 0 -- -- 70
2019-04-05 03:00:00 7.2 3 Sudeste 14 Oeste 0 -- -- 67
2019-04-05 02:00:00 7.5 5 Sudoeste 22 Sudoeste 0 -- -- 66
2019-04-05 01:00:00 7.3 11 Oeste 26 Oeste 0 -- -- 68
2019-04-05 00:00:00 7.5 13 Oeste 34 Oeste 0 -- -- 65
2019-04-04 23:00:00 8.4 15 Oeste 32 Sudoeste 0 -- -- 57
2019-04-04 22:00:00 10.1 16 Oeste 33 Sudoeste 0 -- -- 47
2019-04-04 21:00:00 11.9 14 Sudoeste 31 Sudoeste 0 -- -- 35
2019-04-04 20:00:00 12.4 19 Oeste 35 Sudoeste 0 -- -- 31
2019-04-04 19:00:00 12.8 14 Oeste 36 Oeste 0 -- -- 32
2019-04-04 18:00:00 13.6 16 Sudoeste 43 Sudoeste 0 -- -- 29
2019-04-04 17:00:00 14.6 16 Sudoeste 38 Sudoeste 0 -- -- 28
2019-04-04 16:00:00 14 16 Sudoeste 44 Sudoeste 0 -- -- 31
2019-04-04 15:00:00 13.6 17 Sudoeste 39 Sudoeste 0 -- -- 34
2019-04-04 14:00:00 12.3 14 Sudoeste 31 Oeste 0 -- -- 37
2019-04-04 13:00:00 10.5 15 Oeste 35 Sudoeste 0 -- -- 44
2019-04-04 12:00:00 8.7 18 Oeste 32 Sudoeste 0 -- -- 49
2019-04-04 11:00:00 7.8 10 Oeste 23 Oeste 0 -- -- 49
2019-04-04 10:00:00 4.8 13 Oeste 23 Sudoeste 0 -- -- 58
2019-04-04 09:00:00 3.8 8 Sudoeste 23 Sudoeste 0 -- -- 61
2019-04-04 08:00:00 1.6 14 Oeste 26 Oeste 0 -- -- 68
2019-04-04 07:00:00 2.1 8 Sudoeste 19 Oeste 0 -- -- 67
2019-04-04 06:00:00 2.1 4 Sudoeste 7 Sur 0 -- -- 73
2019-04-04 05:00:00 0.5 4 Sur 8 Sudeste 0 -- -- 80
2019-04-04 04:00:00 1.2 3 Sudeste 10 Oeste 0 -- -- 79
2019-04-04 03:00:00 2 4 Oeste 8 Oeste 0 -- -- 79
2019-04-04 02:00:00 2 5 Oeste 18 Oeste 0 -- -- 76
2019-04-04 01:00:00 3.2 12 Noroeste 23 Noroeste 0 -- -- 74
2019-04-04 00:00:00 2.8 3 Oeste 15 Noroeste 0 -- -- 74
2019-04-03 23:00:00 3.6 7 Oeste 20 Oeste 0 -- -- 68
2019-04-03 22:00:00 4.3 12 Oeste 30 Oeste 0 -- -- 65
2019-04-03 21:00:00 5 11 Oeste 22 Noroeste 0 -- -- 60
2019-04-03 20:00:00 7.2 14 Noroeste 32 Oeste 0 -- -- 57
2019-04-03 19:00:00 8.5 19 Noroeste 52 Noroeste 0 -- -- 52
2019-04-03 18:00:00 8.2 24 Norte 44 Norte 0 -- -- 55
2019-04-03 17:00:00 9.3 18 Noroeste 41 Noroeste 0 -- -- 46
2019-04-03 16:00:00 9.9 14 Noroeste 34 Oeste 0 -- -- 50
2019-04-03 15:00:00 7.9 23 Norte 45 Norte 0 -- -- 65
2019-04-03 14:00:00 11.8 19 Noroeste 28 Noroeste 0 -- -- 52
2019-04-03 13:00:00 8 8 Oeste 24 Noroeste 0 -- -- 66
2019-04-03 12:00:00 8.2 6 Nordeste 26 Oeste 0 -- -- 73
2019-04-03 11:00:00 7.6 10 Noroeste 20 Norte 0 -- -- 71
2019-04-03 10:00:00 6.8 6 Noroeste 17 Oeste 0.8 -- -- 80
2019-04-03 09:00:00 6.4 7 Oeste 12 Sudoeste 0 -- -- 82
2019-04-03 08:00:00 6.6 4 Sudoeste 10 Oeste 0.2 -- -- 83
2019-04-03 07:00:00 6.3 2 Oeste 8 Sudeste 0 -- -- 94
2019-04-03 06:00:00 6.1 6 Sudeste 11 Sudeste 0.4 -- -- 94
2019-04-03 05:00:00 6.4 5 Este 14 Nordeste 0.2 -- -- 93
2019-04-03 04:00:00 7.5 5 Nordeste 9 Nordeste 0 -- -- 87
2019-04-03 03:00:00 7.4 4 Sudeste 14 Nordeste 0 -- -- 90
2019-04-03 02:00:00 8.2 8 Nordeste 15 Este 0 -- -- 83
2019-04-03 01:00:00 8.6 9 Nordeste 16 Nordeste 0 -- -- 81
2019-04-03 00:00:00 9 5 Nordeste 17 Nordeste 0 -- -- 83
2019-04-02 23:00:00 9.8 8 Nordeste 18 Nordeste 0 -- -- 77
2019-04-02 22:00:00 10.3 8 Nordeste 17 Nordeste 0 -- -- 73
2019-04-02 21:00:00 10.7 7 Nordeste 25 Nordeste 0 -- -- 70
2019-04-02 20:00:00 11.2 9 Nordeste 30 Nordeste 0 -- -- 71
2019-04-02 19:00:00 13.1 13 Nordeste 29 Nordeste 0 -- -- 66
2019-04-02 18:00:00 15.5 15 Nordeste 31 Nordeste 0 -- -- 57
2019-04-02 17:00:00 17.9 5 Norte 18 Nordeste 0 -- -- 43
2019-04-02 16:00:00 18.2 9 Nordeste 17 Este 0 -- -- 43
2019-04-02 15:00:00 16.9 11 Este 28 Este 0 -- -- 46
2019-04-02 14:00:00 17 7 Este 21 Este 0 -- -- 47
2019-04-02 13:00:00 16.2 9 Este 18 Este 0 -- -- 55
2019-04-02 12:00:00 15.9 5 Este 10 Este 0 -- -- 54
2019-04-02 11:00:00 12.8 4 Noroeste 11 Oeste 0 -- -- 68
2019-04-02 10:00:00 7.1 0 Calma 5 Norte 0 -- -- 85
2019-04-02 09:00:00 5.5 2 Noroeste 5 Sudoeste 0 -- -- 94
2019-04-02 08:00:00 3.1 2 Noroeste 4 Oeste 0 -- -- 96
2019-04-02 07:00:00 2.7 2 Norte 4 Norte 0 -- -- 96
2019-04-02 06:00:00 2.3 3 Noroeste 4 Noroeste 0 -- -- 96
2019-04-02 05:00:00 2.7 0 Calma 5 Oeste 0 -- -- 94
2019-04-02 04:00:00 4.5 2 Sudoeste 6 Sudoeste 0 -- -- 94
2019-04-02 03:00:00 4.4 0 Calma 4 Noroeste 0 -- -- 94
2019-04-02 02:00:00 4.3 0 Calma 4 Norte 0 -- -- 93
2019-04-02 01:00:00 5.4 3 Oeste 7 Oeste 0 -- -- 91
2019-04-02 00:00:00 7.2 3 Noroeste 7 Oeste 0 -- -- 85
2019-04-01 23:00:00 8.4 3 Sudoeste 10 Sudoeste 0 -- -- 83
2019-04-01 22:00:00 9.8 4 Noroeste 10 Oeste 0 -- -- 80
2019-04-01 21:00:00 11.9 0 Calma 6 Sudeste 0 -- -- 74
2019-04-01 20:00:00 15.3 3 Sudeste 8 Sudeste 0 -- -- 60
2019-04-01 19:00:00 15 2 Nordeste 7 Noroeste 0 -- -- 63
2019-04-01 18:00:00 14.8 4 Este 13 Sudeste 0 -- -- 64
2019-04-01 17:00:00 14.7 8 Sudeste 17 Sudeste 0 -- -- 65
2019-04-01 16:00:00 15.2 8 Sudeste 16 Este 0 -- -- 63
2019-04-01 15:00:00 14.3 7 Sur 14 Sur 0 -- -- 65
2019-04-01 14:00:00 13.6 7 Sur 17 Sur 0 -- -- 66
2019-04-01 13:00:00 13.4 10 Sur 18 Sur 0 -- -- 68
2019-04-01 12:00:00 13.3 7 Sudeste 16 Sudeste 0 -- -- 67
2019-04-01 11:00:00 10.3 9 Sudeste 18 Sudeste 0 -- -- 80
2019-04-01 10:00:00 9.2 7 Sudeste 19 Sudeste 0 -- -- 85
2019-04-01 09:00:00 8.5 9 Sudeste 17 Este 0 -- -- 88
2019-04-01 08:00:00 8.2 8 Sudoeste 14 Sudoeste 0 -- -- 86
2019-04-01 07:00:00 7.4 4 Oeste 8 Sudoeste 0 -- -- 89
2019-04-01 06:00:00 7.5 3 Oeste 6 Oeste 0 -- -- 89
2019-04-01 05:00:00 7.5 0 Calma 6 Sudoeste 0 -- -- 89
2019-04-01 04:00:00 8 3 Nordeste 10 Nordeste 0.2 -- -- 86
2019-04-01 03:00:00 8.5 4 Este 28 Sudeste 0.2 -- -- 86
2019-04-01 02:00:00 9.2 16 Sudeste 35 Sudeste 0 -- -- 74
2019-04-01 01:00:00 10.7 13 Sudeste 31 Este 0 -- -- 62
2019-04-01 00:00:00 11.4 13 Sudeste 31 Sudeste 0 -- -- 57
2019-03-31 23:00:00 12.5 17 Sudeste 31 Sudeste 0 -- -- 50
2019-03-31 22:00:00 12.5 4 Nordeste 12 Este 0 -- -- 46
2019-03-31 21:00:00 13.9 4 Nordeste 18 Este 0 -- -- 44
2019-03-31 20:00:00 16.1 11 Sudeste 30 Sudeste 0 -- -- 39
2019-03-31 19:00:00 19 13 Sudeste 29 Sudeste 0 -- -- 38
2019-03-31 18:00:00 20.5 14 Sudeste 27 Sudeste 0 -- -- 36
2019-03-31 17:00:00 20.9 9 Sudeste 23 Sudeste 0 -- -- 33
2019-03-31 16:00:00 20.9 9 Sudeste 21 Sur 0 -- -- 36
2019-03-31 15:00:00 20 6 Sudeste 17 Sudeste 0 -- -- 39
2019-03-31 14:00:00 18.2 6 Nordeste 14 Este 0 -- -- 44
2019-03-31 13:00:00 16.7 5 Nordeste 13 Este 0 -- -- 46
2019-03-31 12:00:00 15.1 3 Este 9 Sudeste 0 -- -- 47
2019-03-31 11:00:00 12.8 2 Norte 6 Nordeste 0 -- -- 54
2019-03-31 10:00:00 6.5 2 Noroeste 4 Noroeste 0 -- -- 72
2019-03-31 09:00:00 5.5 0 Calma 3 Norte 0 -- -- 77
2019-03-31 08:00:00 0.2 2 Noroeste 4 Noroeste 0 -- -- 89
2019-03-31 07:00:00 1.3 2 Sudoeste 4 Noroeste 0 -- -- 88
2019-03-31 06:00:00 1.2 2 Norte 4 Sudeste 0 -- -- 85
2019-03-31 05:00:00 2.9 3 Oeste 8 Sudoeste 0 -- -- 79
2019-03-31 03:00:00 3.4 2 Noroeste 5 Noroeste 0 -- -- 82
2019-03-31 01:00:00 5.4 3 Noroeste 8 Oeste 0 -- -- 72
2019-03-31 00:00:00 5.4 3 Norte 7 Oeste 0 -- -- 75
2019-03-30 23:00:00 8 3 Oeste 9 Sudoeste 0 -- -- 63
2019-03-30 22:00:00 9.7 3 Oeste 9 Oeste 0 -- -- 56
2019-03-30 21:00:00 11.2 3 Noroeste 9 Sur 0 -- -- 55
2019-03-30 20:00:00 14.2 8 Sudeste 20 Sudeste 0 -- -- 41
2019-03-30 19:00:00 17.6 9 Sudeste 24 Este 0 -- -- 36
2019-03-30 18:00:00 20.4 8 Sudeste 21 Sudeste 0 -- -- 33
2019-03-30 17:00:00 21.3 9 Sudeste 19 Sur 0 -- -- 32
2019-03-30 16:00:00 20.3 6 Noroeste 18 Sudeste 0 -- -- 34
2019-03-30 15:00:00 20.8 7 Sudeste 20 Sudeste 0 -- -- 37
2019-03-30 14:00:00 20 6 Este 17 Sudeste 0 -- -- 39
2019-03-30 13:00:00 18.3 9 Sudeste 23 Sur 0 -- -- 43
2019-03-30 12:00:00 16.4 9 Sudeste 24 Sudeste 0 -- -- 48
2019-03-30 11:00:00 14.9 11 Sur 23 Sudeste 0 -- -- 50
2019-03-30 10:00:00 13.2 11 Sudeste 20 Sudeste 0 -- -- 54
2019-03-30 09:00:00 7.7 3 Norte 5 Norte 0 -- -- 69
2019-03-30 08:00:00 6.5 3 Noroeste 4 Norte 0 -- -- 74
2019-03-30 07:00:00 1.8 0 Calma 6 Sudoeste 0 -- -- 87
2019-03-30 06:00:00 2.5 3 Noroeste 7 Noroeste 0 -- -- 85
2019-03-30 05:00:00 3.6 3 Oeste 10 Noroeste 0 -- -- 81
2019-03-30 04:00:00 4.8 4 Norte 15 Sudeste 0 -- -- 77
2019-03-30 03:00:00 4.6 2 Norte 7 Noroeste 0 -- -- 76
2019-03-30 02:00:00 5.2 3 Norte 7 Noroeste 0 -- -- 73
2019-03-30 01:00:00 6.3 3 Sudoeste 8 Oeste 0 -- -- 68
2019-03-30 00:00:00 8.2 3 Oeste 10 Este 0 -- -- 61
2019-03-29 23:00:00 11.1 6 Nordeste 18 Este 0 -- -- 50
2019-03-29 22:00:00 14.1 6 Nordeste 23 Este 0 -- -- 39
2019-03-29 21:00:00 14.1 5 Norte 15 Norte 0 -- -- 41
2019-03-29 20:00:00 14.6 6 Sudeste 22 Sudeste 0 -- -- 39
2019-03-29 19:00:00 18.2 8 Sudeste 22 Sudeste 0 -- -- 34
2019-03-29 18:00:00 20.7 10 Sudeste 23 Sudeste 0 -- -- 31
2019-03-29 17:00:00 22 9 Sudeste 21 Sudeste 0 -- -- 31
2019-03-29 16:00:00 21.5 12 Sudeste 26 Sudeste 0 -- -- 32
2019-03-29 15:00:00 20.8 16 Sudeste 28 Sudeste 0 -- -- 35
2019-03-29 14:00:00 20.1 14 Sudeste 30 Sudeste 0 -- -- 36
2019-03-29 13:00:00 18.3 14 Sudeste 26 Sur 0 -- -- 40
2019-03-29 12:00:00 14.2 6 Oeste 12 Oeste 0 -- -- 51
2019-03-29 11:00:00 12.4 4 Este 9 Este 0 -- -- 54
2019-03-29 10:00:00 9.8 2 Nordeste 5 Nordeste 0 -- -- 61
2019-03-29 09:00:00 2.7 2 Nordeste 4 Norte 0 -- -- 84
2019-03-29 08:00:00 1.7 2 Oeste 5 Noroeste 0 -- -- 86
2019-03-29 07:00:00 -1.8 0 Calma 6 Oeste 0 -- -- 93
2019-03-29 06:00:00 -1.8 2 Oeste 4 Norte 0 -- -- 93
2019-03-29 05:00:00 -1 0 Calma 4 Noroeste 0 -- -- 92
2019-03-29 04:00:00 0.1 2 Oeste 7 Oeste 0 -- -- 89
2019-03-29 03:00:00 1 3 Noroeste 8 Sudoeste 0 -- -- 86
2019-03-29 02:00:00 1.1 2 Noroeste 9 Sudoeste 0 -- -- 88
2019-03-29 01:00:00 1.7 0 Calma 8 Oeste 0 -- -- 89
2019-03-29 00:00:00 3.9 5 Oeste 9 Oeste 0 -- -- 81
2019-03-28 23:00:00 5 2 Nordeste 8 Norte 0 -- -- 78
2019-03-28 22:00:00 6.7 5 Norte 9 Nordeste 0 -- -- 75
2019-03-28 21:00:00 7.9 5 Norte 15 Norte 0 -- -- 74
2019-03-28 20:00:00 9.6 5 Norte 17 Nordeste 0 -- -- 68
2019-03-28 19:00:00 14.4 8 Nordeste 19 Nordeste 0 -- -- 53
2019-03-28 18:00:00 16.5 9 Nordeste 19 Nordeste 0 -- -- 49
2019-03-28 17:00:00 17.6 8 Norte 22 Nordeste 0 -- -- 46
2019-03-28 16:00:00 17.9 10 Nordeste 22 Nordeste 0 -- -- 42
2019-03-28 15:00:00 17.4 8 Norte 24 Nordeste 0 -- -- 45
2019-03-28 14:00:00 16.5 11 Nordeste 20 Nordeste 0 -- -- 46
2019-03-28 13:00:00 16.8 6 Nordeste 15 Este 0 -- -- 47
2019-03-28 12:00:00 15 9 Este 19 Sudeste 0 -- -- 51
2019-03-28 11:00:00 13.9 6 Sudeste 13 Sudeste 0 -- -- 55
2019-03-28 10:00:00 11.5 2 Noroeste 5 Noroeste 0 -- -- 59
2019-03-28 09:00:00 4.6 0 Calma 4 Noroeste 0 -- -- 80
2019-03-28 08:00:00 3 3 Noroeste 6 Noroeste 0 -- -- 84
2019-03-28 07:00:00 3.5 3 Noroeste 6 Norte 0 -- -- 82
2019-03-28 06:00:00 4.5 3 Norte 5 Norte 0 -- -- 81
2019-03-28 05:00:00 4 0 Calma 8 Oeste 0 -- -- 80
2019-03-28 04:00:00 3.7 3 Noroeste 6 Noroeste 0 -- -- 80
2019-03-28 03:00:00 2.8 0 Calma 6 Noroeste -- -- -- 83
2019-03-28 02:00:00 0.8 0 Calma 9 Oeste 0 -- -- 85
2019-03-28 01:00:00 3.3 6 Oeste 10 Sudoeste 0 -- -- 78
2019-03-28 00:00:00 2.1 3 Oeste 5 Sudoeste 0 -- -- 85
2019-03-27 23:00:00 3.1 3 Nordeste 6 Este 0 -- -- 79
2019-03-27 22:00:00 4.6 0 Calma 15 Norte 0 -- -- 72
2019-03-27 21:00:00 6.3 8 Norte 13 Norte 0 -- -- 63
2019-03-27 20:00:00 8.2 12 Norte 26 Noroeste 0 -- -- 58
2019-03-27 19:00:00 11.3 15 Norte 27 Norte 0 -- -- 50
2019-03-27 18:00:00 14.7 13 Norte 31 Norte 0 -- -- 40
2019-03-27 17:00:00 16.5 14 Nordeste 28 Nordeste 0 -- -- 34
2019-03-27 16:00:00 17.2 10 Nordeste 24 Nordeste 0 -- -- 34
2019-03-27 15:00:00 17.1 12 Nordeste 23 Norte 0 -- -- 34
2019-03-27 14:00:00 16.4 10 Norte 22 Nordeste 0 -- -- 34
2019-03-27 13:00:00 15.7 11 Nordeste 22 Nordeste 0 -- -- 36
2019-03-27 12:00:00 14.7 9 Norte 19 Nordeste 0 -- -- 40
2019-03-27 11:00:00 14 5 Noroeste 10 Nordeste 0 -- -- 45
2019-03-27 10:00:00 11.3 3 Sur 7 Nordeste 0 -- -- 56
2019-03-27 09:00:00 4.5 3 Sudoeste 5 Sudoeste 0 -- -- 79
2019-03-27 08:00:00 3.1 0 Calma 4 Noroeste 0 -- -- 82
2019-03-27 07:00:00 -1.4 0 Calma 6 Noroeste 0 -- -- 92
2019-03-27 06:00:00 -0.7 0 Calma 5 Oeste 0 -- -- 91
2019-03-27 05:00:00 1.4 3 Este 9 Sudeste 0 -- -- 92
2019-03-27 04:00:00 0.9 0 Calma 8 Sudeste 0 -- -- 91
2019-03-27 03:00:00 1 0 Calma 6 Norte 0 -- -- 89
2019-03-27 02:00:00 2.7 2 Sudoeste 7 Sur 0 -- -- 83
2019-03-27 01:00:00 1.9 2 Noroeste 5 Oeste 0 -- -- 82
2019-03-27 00:00:00 3.9 3 Sudeste 9 Sur 0 -- -- 74
2019-03-26 23:00:00 5.5 3 Oeste 14 Este 0 -- -- 63
2019-03-26 22:00:00 6.9 6 Nordeste 18 Nordeste 0 -- -- 59
2019-03-26 21:00:00 7.2 3 Noroeste 17 Noroeste 0 -- -- 57
2019-03-26 20:00:00 9.1 5 Este 24 Nordeste 0 -- -- 43
2019-03-26 19:00:00 11.8 15 Nordeste 37 Nordeste 0 -- -- 30
2019-03-26 18:00:00 14.3 20 Nordeste 37 Nordeste 0 -- -- 23
2019-03-26 17:00:00 15.7 19 Nordeste 38 Nordeste 0 -- -- 22
2019-03-26 16:00:00 16.4 18 Nordeste 38 Nordeste 0 -- -- 22
2019-03-26 15:00:00 17 14 Nordeste 33 Nordeste 0 -- -- 24
2019-03-26 14:00:00 15.3 20 Nordeste 35 Nordeste 0 -- -- 26
2019-03-26 13:00:00 14.9 14 Nordeste 31 Nordeste 0 -- -- 26
2019-03-26 12:00:00 13.6 8 Nordeste 27 Nordeste 0 -- -- 35
2019-03-26 11:00:00 11.8 10 Nordeste 26 Nordeste 0 -- -- 38
2019-03-26 10:00:00 9.9 11 Nordeste 21 Nordeste 0 -- -- 47
2019-03-26 09:00:00 6.4 4 Noroeste 8 Noroeste 0 -- -- 67
2019-03-26 08:00:00 6.1 0 Calma 4 Oeste 0 -- -- 72
2019-03-26 07:00:00 2.4 5 Norte 9 Noroeste 0 -- -- 84
2019-03-26 06:00:00 3.5 0 Calma 12 Norte 0 -- -- 83
2019-03-26 05:00:00 5.3 7 Nordeste 16 Nordeste 0 -- -- 77
2019-03-26 04:00:00 5.1 0 Calma 9 Noroeste 0 -- -- 84
2019-03-26 03:00:00 6.5 6 Noroeste 11 Noroeste 0 -- -- 79
2019-03-26 02:00:00 6.5 7 Noroeste 15 Oeste 0 -- -- 76
2019-03-26 01:00:00 6.3 6 Noroeste 11 Sudoeste 0 -- -- 76
2019-03-26 00:00:00 5.5 4 Sudoeste 10 Noroeste 0 -- -- 75
2019-03-25 23:00:00 4.5 3 Norte 12 Nordeste 0 -- -- 79
2019-03-25 22:00:00 5.8 7 Norte 20 Nordeste 0 -- -- 73
2019-03-25 21:00:00 6.6 10 Nordeste 19 Nordeste 0 -- -- 67
2019-03-25 20:00:00 7.3 4 Nordeste 26 Nordeste 0 -- -- 66
2019-03-25 19:00:00 9.9 10 Norte 27 Nordeste 0 -- -- 57
2019-03-25 18:00:00 12.3 12 Norte 33 Norte 0 -- -- 51
2019-03-25 17:00:00 13.9 12 Norte 32 Norte 0 -- -- 51
2019-03-25 16:00:00 14.2 15 Norte 28 Nordeste 0 -- -- 46
2019-03-25 15:00:00 14.5 14 Norte 27 Nordeste 0 -- -- 46
2019-03-25 14:00:00 12.5 9 Norte 24 Norte 0 -- -- 53
2019-03-25 13:00:00 12 14 Norte 25 Norte 0 -- -- 56
2019-03-25 12:00:00 11.1 14 Norte 27 Nordeste 0 -- -- 60
2019-03-25 11:00:00 10.7 13 Norte 26 Nordeste 0 -- -- 56
2019-03-25 10:00:00 10.4 14 Norte 24 Nordeste 0 -- -- 64
2019-03-25 09:00:00 9.4 2 Norte 11 Noroeste 0 -- -- 79
2019-03-25 08:00:00 8.6 5 Noroeste 8 Noroeste 0 -- -- 80
2019-03-25 07:00:00 7.6 3 Norte 6 Nordeste 0 -- -- 85
2019-03-25 06:00:00 6.4 0 Calma 6 Oeste 0 -- -- 87
2019-03-25 05:00:00 5.6 3 Oeste 10 Oeste 0 -- -- 89
2019-03-25 04:00:00 4 2 Sudoeste 6 Oeste 0 -- -- 91
2019-03-25 03:00:00 2.8 2 Noroeste 5 Noroeste 0 -- -- 92
2019-03-25 02:00:00 3.1 3 Oeste 6 Noroeste 0 -- -- 90
2019-03-25 01:00:00 4.3 0 Calma 5 Sudoeste 0 -- -- 87
2019-03-25 00:00:00 5.7 3 Oeste 6 Oeste 0 -- -- 84
2019-03-24 23:00:00 7.8 0 Calma 7 Sur 0 -- -- 79
2019-03-24 22:00:00 8.9 3 Nordeste 10 Nordeste 0 -- -- 75
2019-03-24 21:00:00 10.2 4 Nordeste 12 Norte 0 -- -- 73
2019-03-24 20:00:00 13.2 6 Nordeste 13 Nordeste 0 -- -- 61
2019-03-24 19:00:00 17.3 8 Nordeste 27 Nordeste 0 -- -- 49
2019-03-24 18:00:00 20.2 12 Nordeste 30 Nordeste 0 -- -- 40
2019-03-24 17:00:00 21.3 14 Nordeste 30 Nordeste 0 -- -- 38
2019-03-24 16:00:00 22.4 10 Nordeste 27 Nordeste 0 -- -- 33
2019-03-24 15:00:00 22.4 8 Nordeste 24 Nordeste 0 -- -- 28
2019-03-24 14:00:00 22.8 7 Nordeste 19 Nordeste 0 -- -- 32
2019-03-24 13:00:00 21 4 Sudeste 10 Nordeste 0 -- -- 40
2019-03-24 12:00:00 18.1 4 Oeste 11 Oeste 0 -- -- 48
2019-03-24 11:00:00 14.3 4 Oeste 9 Noroeste 0 -- -- 59
2019-03-24 10:00:00 11.8 4 Noroeste 6 Noroeste 0 -- -- 63
2019-03-24 09:00:00 5.5 4 Este 8 Este 0 -- -- 84
2019-03-24 08:00:00 2.9 2 Norte 6 Oeste 0 -- -- 89
2019-03-24 07:00:00 0.1 2 Oeste 4 Noroeste 0 -- -- 94
2019-03-24 06:00:00 0.7 0 Calma 5 Oeste 0 -- -- 93
2019-03-24 05:00:00 1.2 0 Calma 4 Oeste 0 -- -- 93
2019-03-24 04:00:00 1.6 0 Calma 4 Noroeste 0 -- -- 93
2019-03-24 03:00:00 2.5 0 Calma 3 Noroeste 0 -- -- 92
2019-03-24 02:00:00 3.4 2 Noroeste 4 Noroeste 0 -- -- 90
2019-03-24 01:00:00 4.5 0 Calma 8 Oeste 0 -- -- 87
2019-03-24 00:00:00 5.4 3 Noroeste 6 Oeste 0 -- -- 85
2019-03-23 23:00:00 6.4 3 Noroeste 8 Oeste 0 -- -- 81
2019-03-23 22:00:00 8.3 0 Calma 8 Oeste 0 -- -- 75
2019-03-23 21:00:00 11.5 2 Sur 11 Sudeste 0 -- -- 63
2019-03-23 20:00:00 15 5 Sudeste 22 Nordeste 0 -- -- 52
2019-03-23 19:00:00 18.7 11 Nordeste 27 Norte 0 -- -- 42
2019-03-23 18:00:00 23.3 9 Este 19 Este 0 -- -- 26
2019-03-23 17:00:00 23.5 8 Nordeste 21 Nordeste 0 -- -- 30
2019-03-23 16:00:00 24.6 3 Este 14 Este 0 -- -- 31
2019-03-23 15:00:00 23.6 5 Este 12 Nordeste 0 -- -- 30
2019-03-23 14:00:00 21.5 5 Nordeste 10 Norte 0 -- -- 34
2019-03-23 13:00:00 19.4 3 Nordeste 7 Nordeste 0 -- -- 40
2019-03-23 12:00:00 16.5 3 Nordeste 6 Nordeste 0 -- -- 47
2019-03-23 11:00:00 13.2 2 Norte 6 Nordeste 0 -- -- 53
2019-03-23 10:00:00 9.9 3 Norte 6 Oeste 0 -- -- 61
2019-03-23 09:00:00 3.1 2 Norte 3 Norte 0 -- -- 84
2019-03-23 08:00:00 1.2 0 Calma 4 Noroeste 0 -- -- 87
2019-03-23 07:00:00 -1.3 0 Calma 4 Noroeste 0 -- -- 93
2019-03-23 06:00:00 -0.7 2 Oeste 4 Noroeste 0 -- -- 93
2019-03-23 05:00:00 -0.6 0 Calma 7 Oeste 0 -- -- 90
2019-03-23 04:00:00 0.8 3 Oeste 6 Oeste 0 -- -- 92
2019-03-23 03:00:00 0.8 0 Calma 6 Noroeste 0 -- -- 89
2019-03-23 02:00:00 1.7 0 Calma 4 Noroeste 0 -- -- 88
2019-03-23 01:00:00 2.6 0 Calma 6 Oeste 0 -- -- 83
2019-03-23 00:00:00 3.8 3 Noroeste 7 Noroeste 0 -- -- 80
2019-03-22 23:00:00 4.9 3 Noroeste 8 Oeste 0 -- -- 78
2019-03-22 22:00:00 7.2 2 Oeste 11 Oeste 0 -- -- 66
2019-03-22 21:00:00 11 6 Este 17 Este 0 -- -- 52
2019-03-22 20:00:00 12.3 3 Sudeste 12 Nordeste 0 -- -- 46
2019-03-22 19:00:00 17.6 5 Nordeste 13 Nordeste 0 -- -- 34
2019-03-22 18:00:00 22.1 3 Norte 13 Este 0 -- -- 27
2019-03-22 17:00:00 20.2 8 Nordeste 13 Nordeste 0 -- -- 27
2019-03-22 16:00:00 20.8 4 Nordeste 16 Nordeste 0 -- -- 26
2019-03-22 15:00:00 19.9 3 Norte 13 Este 0 -- -- 27
2019-03-22 14:00:00 19.1 4 Nordeste 10 Sudeste 0 -- -- 34
2019-03-22 13:00:00 16.2 4 Nordeste 8 Nordeste 0 -- -- 44
2019-03-22 12:00:00 12.8 3 Nordeste 7 Este 0 -- -- 55
2019-03-22 11:00:00 8.3 3 Sudeste 6 Noroeste 0 -- -- 87
2019-03-22 10:00:00 2.2 3 Oeste 7 Oeste 0 -- -- 94
2019-03-22 09:00:00 -0.5 3 Noroeste 8 Noroeste 0 -- -- 96
2019-03-22 08:00:00 -1.4 3 Oeste 6 Sudoeste 0 -- -- 97
2019-03-22 07:00:00 -2.5 3 Noroeste 5 Noroeste 0 -- -- 96
2019-03-22 06:00:00 -1.9 2 Norte 5 Oeste 0 -- -- 96
2019-03-22 05:00:00 -1.9 2 Noroeste 3 Noroeste 0 -- -- 95
2019-03-22 04:00:00 -1.6 0 Calma 4 Noroeste 0 -- -- 95
2019-03-22 03:00:00 -0.7 0 Calma 4 Noroeste 0 -- -- 94
2019-03-22 02:00:00 0.3 2 Oeste 5 Oeste 0 -- -- 94
2019-03-22 01:00:00 1 2 Oeste 6 Oeste 0 -- -- 92
2019-03-22 00:00:00 1.8 3 Noroeste 8 Oeste 0 -- -- 88
2019-03-21 23:00:00 3.1 3 Noroeste 7 Sudoeste 0 -- -- 86
2019-03-21 22:00:00 5 3 Oeste 6 Oeste 0 -- -- 84
2019-03-21 21:00:00 6.4 3 Norte 8 Este 0 -- -- 80
2019-03-21 20:00:00 9.5 4 Nordeste 13 Nordeste 0 -- -- 68
2019-03-21 19:00:00 12.7 5 Nordeste 19 Nordeste 0 -- -- 51
2019-03-21 18:00:00 14.9 7 Norte 19 Nordeste 0 -- -- 45
2019-03-21 17:00:00 15.3 8 Nordeste 21 Este 0 -- -- 43
2019-03-21 16:00:00 15.9 7 Nordeste 21 Nordeste 0 -- -- 40
2019-03-21 15:00:00 15.1 7 Norte 15 Noroeste 0 -- -- 45
2019-03-21 14:00:00 13 10 Norte 17 Norte 0 -- -- 55
2019-03-21 13:00:00 14 9 Norte 23 Sudeste 0 -- -- 53
2019-03-21 12:00:00 13 10 Sudeste 24 Sudeste 0 -- -- 59
2019-03-21 11:00:00 11.2 5 Este 10 Este 0 -- -- 62
2019-03-21 10:00:00 8.2 4 Noroeste 9 Noroeste 0 -- -- 70
2019-03-21 09:00:00 1.6 3 Oeste 4 Noroeste 0 -- -- 95
2019-03-21 08:00:00 -0.1 2 Noroeste 5 Norte 0 -- -- 94
2019-03-21 07:00:00 -2.1 0 Calma 6 Oeste 0 -- -- 96
2019-03-21 06:00:00 -1.2 2 Noroeste 5 Este 0 -- -- 96
2019-03-21 05:00:00 -1.1 0 Calma 5 Oeste 0 -- -- 95
2019-03-21 04:00:00 0 0 Calma 4 Norte 0 -- -- 94
2019-03-21 03:00:00 0.6 0 Calma 3 Oeste 0 -- -- 94
2019-03-21 02:00:00 1 2 Noroeste 3 Noroeste 0 -- -- 91
2019-03-21 01:00:00 2.2 0 Calma 6 Oeste 0 -- -- 87
2019-03-21 00:00:00 2.5 4 Oeste 8 Oeste 0 -- -- 84
2019-03-20 23:00:00 2.5 2 Oeste 4 Oeste 0 -- -- 83
2019-03-20 22:00:00 4.1 0 Calma 17 Norte 0 -- -- 78
2019-03-20 21:00:00 4.4 6 Norte 10 Norte 0 -- -- 74
2019-03-20 20:00:00 6.5 2 Norte 19 Norte 0 -- -- 62
2019-03-20 19:00:00 9.3 8 Norte 22 Nordeste 0 -- -- 50
2019-03-20 18:00:00 12.3 11 Norte 31 Este 0 -- -- 42
2019-03-20 17:00:00 13 18 Nordeste 30 Nordeste 0 -- -- 34
2019-03-20 16:00:00 13.3 14 Este 30 Este 0 -- -- 37
2019-03-20 15:00:00 13.1 17 Nordeste 31 Nordeste 0 -- -- 39
2019-03-20 14:00:00 12.7 14 Nordeste 35 Nordeste 0 -- -- 43
2019-03-20 13:00:00 11.9 13 Nordeste 34 Nordeste 0 -- -- 49
2019-03-20 12:00:00 11 18 Nordeste 33 Nordeste 0 -- -- 49
2019-03-20 11:00:00 10.3 12 Norte 28 Norte 0 -- -- 55
2019-03-20 10:00:00 8.2 6 Norte 15 Nordeste 0 -- -- 71
2019-03-20 09:00:00 6.9 4 Norte 9 Nordeste 0 -- -- 80
2019-03-20 08:00:00 5.4 5 Nordeste 9 Nordeste 0 -- -- 87
2019-03-20 07:00:00 4.5 2 Norte 5 Noroeste 0 -- -- 92
2019-03-20 06:00:00 4.5 0 Calma 10 Oeste 0 -- -- 89
2019-03-20 05:00:00 4.8 4 Sudoeste 9 Sudoeste 0 -- -- 88
2019-03-20 04:00:00 4.8 4 Sudoeste 10 Sur 0 -- -- 87
2019-03-20 03:00:00 2.7 4 Sur 8 Sur 0 -- -- 94
2019-03-20 02:00:00 2.8 3 Sur 13 Sudoeste 0 -- -- 91
2019-03-20 01:00:00 3.5 7 Oeste 13 Sudoeste 0 -- -- 91
2019-03-20 00:00:00 4.2 4 Este 9 Este 0 -- -- 91
2019-03-19 23:00:00 4 2 Noroeste 6 Norte 0 -- -- 91
2019-03-19 22:00:00 4.8 4 Norte 10 Norte 0 -- -- 89
2019-03-19 21:00:00 5.4 3 Norte 18 Nordeste 0 -- -- 83
2019-03-19 20:00:00 6.2 3 Norte 21 Nordeste 0 -- -- 84
2019-03-19 19:00:00 7.9 12 Nordeste 22 Nordeste 0 -- -- 74
2019-03-19 18:00:00 7.9 11 Norte 26 Nordeste 0 -- -- 77
2019-03-19 17:00:00 9.3 15 Norte 29 Norte 0 -- -- 72
2019-03-19 16:00:00 9.2 11 Norte 24 Norte 0 -- -- 77
2019-03-19 15:00:00 9.8 15 Norte 31 Norte 0.2 -- -- 74
2019-03-19 14:00:00 9.8 10 Norte 26 Nordeste 0.4 -- -- 76
2019-03-19 13:00:00 9.9 11 Norte 31 Noroeste 0 -- -- 74
2019-03-19 12:00:00 9.5 12 Norte 27 Nordeste 0 -- -- 76
2019-03-19 11:00:00 8.3 5 Noroeste 10 Oeste 1.2 -- -- 88
2019-03-19 10:00:00 6.4 3 Oeste 12 Sudoeste 0.6 -- -- 93
2019-03-19 09:00:00 5.8 5 Oeste 9 Sudoeste 0.8 -- -- 93
2019-03-19 08:00:00 5.3 4 Oeste 8 Oeste 0.4 -- -- 93
2019-03-19 07:00:00 5.2 4 Noroeste 10 Oeste 0.2 -- -- 92
2019-03-19 06:00:00 5.2 3 Oeste 10 Oeste 0 -- -- 90
2019-03-19 05:00:00 5.6 6 Oeste 13 Oeste 0 -- -- 87
2019-03-19 04:00:00 5.7 4 Oeste 16 Noroeste 0 -- -- 85
2019-03-19 03:00:00 5.6 4 Noroeste 9 Noroeste 0 -- -- 86
2019-03-19 02:00:00 5.7 3 Norte 17 Norte 0 -- -- 83
2019-03-19 01:00:00 6.2 10 Norte 18 Noroeste 0 -- -- 79
2019-03-19 00:00:00 6.4 6 Noroeste 13 Noroeste 0 -- -- 75